sensor_id;sensor_type;location;lat;lon;timestamp;temperature;humidity
52034;DHT22;38045;52.988;6.536;2023-03-14T00:00:36;10.20;99.90
52034;DHT22;38045;52.988;6.536;2023-03-14T00:03:02;10.20;99.90
52034;DHT22;38045;52.988;6.536;2023-03-14T00:05:28;10.20;99.90
52034;DHT22;38045;52.988;6.536;2023-03-14T00:07:54;10.30;99.90
52034;DHT22;38045;52.988;6.536;2023-03-14T00:10:20;10.40;99.90
52034;DHT22;38045;52.988;6.536;2023-03-14T00:12:45;10.40;99.90
52034;DHT22;38045;52.988;6.536;2023-03-14T00:15:12;10.50;99.90
52034;DHT22;38045;52.988;6.536;2023-03-14T00:17:37;10.50;99.90
52034;DHT22;38045;52.988;6.536;2023-03-14T00:20:06;10.50;99.90
52034;DHT22;38045;52.988;6.536;2023-03-14T00:22:36;10.60;99.90
52034;DHT22;38045;52.988;6.536;2023-03-14T00:25:02;10.60;99.90
52034;DHT22;38045;52.988;6.536;2023-03-14T00:27:28;10.70;99.90
52034;DHT22;38045;52.988;6.536;2023-03-14T00:29:53;10.80;99.90
52034;DHT22;38045;52.988;6.536;2023-03-14T00:32:19;10.90;99.90
52034;DHT22;38045;52.988;6.536;2023-03-14T00:34:45;10.90;99.90
52034;DHT22;38045;52.988;6.536;2023-03-14T00:37:10;11.00;99.90
52034;DHT22;38045;52.988;6.536;2023-03-14T00:39:36;11.00;99.90
52034;DHT22;38045;52.988;6.536;2023-03-14T00:42:01;11.00;99.90
52034;DHT22;38045;52.988;6.536;2023-03-14T00:44:27;11.10;99.90
52034;DHT22;38045;52.988;6.536;2023-03-14T00:46:53;11.10;99.90
52034;DHT22;38045;52.988;6.536;2023-03-14T00:49:19;11.00;99.90
52034;DHT22;38045;52.988;6.536;2023-03-14T00:51:44;11.10;99.90
52034;DHT22;38045;52.988;6.536;2023-03-14T00:54:10;11.00;99.90
52034;DHT22;38045;52.988;6.536;2023-03-14T00:56:36;11.00;99.90
52034;DHT22;38045;52.988;6.536;2023-03-14T00:59:01;11.20;99.90
52034;DHT22;38045;52.988;6.536;2023-03-14T01:01:27;11.20;99.90
52034;DHT22;38045;52.988;6.536;2023-03-14T01:03:54;11.20;99.90
52034;DHT22;38045;52.988;6.536;2023-03-14T01:06:23;11.20;99.90
52034;DHT22;38045;52.988;6.536;2023-03-14T01:08:49;11.20;99.90
52034;DHT22;38045;52.988;6.536;2023-03-14T01:11:29;11.20;99.90
52034;DHT22;38045;52.988;6.536;2023-03-14T01:13:55;11.20;99.90
52034;DHT22;38045;52.988;6.536;2023-03-14T01:16:23;11.30;99.90
52034;DHT22;38045;52.988;6.536;2023-03-14T01:18:49;11.30;99.90
52034;DHT22;38045;52.988;6.536;2023-03-14T01:21:26;11.30;99.90
52034;DHT22;38045;52.988;6.536;2023-03-14T01:23:53;11.30;99.90
52034;DHT22;38045;52.988;6.536;2023-03-14T01:26:22;11.20;99.90
52034;DHT22;38045;52.988;6.536;2023-03-14T01:28:49;11.20;99.90
52034;DHT22;38045;52.988;6.536;2023-03-14T01:31:16;11.20;99.90
52034;DHT22;38045;52.988;6.536;2023-03-14T01:33:41;11.20;99.90
52034;DHT22;38045;52.988;6.536;2023-03-14T01:36:08;11.20;99.90
52034;DHT22;38045;52.988;6.536;2023-03-14T01:38:35;11.20;99.90
52034;DHT22;38045;52.988;6.536;2023-03-14T01:41:02;11.20;99.90
52034;DHT22;38045;52.988;6.536;2023-03-14T01:43:28;11.20;99.90
52034;DHT22;38045;52.988;6.536;2023-03-14T01:48:48;11.10;99.90
52034;DHT22;38045;52.988;6.536;2023-03-14T01:54:25;11.00;99.90
52034;DHT22;38045;52.988;6.536;2023-03-14T01:59:29;11.00;99.90
52034;DHT22;38045;52.988;6.536;2023-03-14T02:01:55;10.90;99.90
52034;DHT22;38045;52.988;6.536;2023-03-14T02:04:21;10.80;99.90
52034;DHT22;38045;52.988;6.536;2023-03-14T02:07:17;11.00;99.90
52034;DHT22;38045;52.988;6.536;2023-03-14T02:09:41;10.80;99.90
52034;DHT22;38045;52.988;6.536;2023-03-14T02:12:13;10.70;99.90
52034;DHT22;38045;52.988;6.536;2023-03-14T02:14:40;10.70;99.90
52034;DHT22;38045;52.988;6.536;2023-03-14T02:17:08;10.70;99.90
52034;DHT22;38045;52.988;6.536;2023-03-14T02:22:21;10.70;99.90
52034;DHT22;38045;52.988;6.536;2023-03-14T02:27:20;10.60;99.90
52034;DHT22;38045;52.988;6.536;2023-03-14T02:29:53;10.60;99.90
52034;DHT22;38045;52.988;6.536;2023-03-14T02:32:21;10.60;99.90
52034;DHT22;38045;52.988;6.536;2023-03-14T02:34:51;10.60;99.90
52034;DHT22;38045;52.988;6.536;2023-03-14T02:37:19;10.60;99.90
52034;DHT22;38045;52.988;6.536;2023-03-14T02:39:46;10.60;99.90
52034;DHT22;38045;52.988;6.536;2023-03-14T02:42:15;10.60;99.90
52034;DHT22;38045;52.988;6.536;2023-03-14T02:45:01;10.60;99.90
52034;DHT22;38045;52.988;6.536;2023-03-14T02:47:52;10.50;99.90
52034;DHT22;38045;52.988;6.536;2023-03-14T02:50:22;10.50;99.90
52034;DHT22;38045;52.988;6.536;2023-03-14T02:52:49;10.50;99.90
52034;DHT22;38045;52.988;6.536;2023-03-14T02:55:19;10.50;99.90
52034;DHT22;38045;52.988;6.536;2023-03-14T02:57:45;10.50;99.90
52034;DHT22;38045;52.988;6.536;2023-03-14T03:00:11;10.40;99.90
52034;DHT22;38045;52.988;6.536;2023-03-14T03:02:36;10.40;99.90
52034;DHT22;38045;52.988;6.536;2023-03-14T03:05:02;10.50;99.90
52034;DHT22;38045;52.988;6.536;2023-03-14T03:07:28;10.10;99.90
52034;DHT22;38045;52.988;6.536;2023-03-14T03:09:53;11.00;99.90
52034;DHT22;38045;52.988;6.536;2023-03-14T03:12:19;9.90;99.90
52034;DHT22;38045;52.988;6.536;2023-03-14T03:14:44;9.90;99.90
52034;DHT22;38045;52.988;6.536;2023-03-14T03:17:10;9.80;99.90
52034;DHT22;38045;52.988;6.536;2023-03-14T03:19:35;9.70;99.90
52034;DHT22;38045;52.988;6.536;2023-03-14T03:22:01;9.70;99.90
52034;DHT22;38045;52.988;6.536;2023-03-14T03:24:27;9.70;99.90
52034;DHT22;38045;52.988;6.536;2023-03-14T03:26:53;9.70;99.90
52034;DHT22;38045;52.988;6.536;2023-03-14T03:29:18;9.60;99.90
52034;DHT22;38045;52.988;6.536;2023-03-14T03:31:44;9.60;99.90
52034;DHT22;38045;52.988;6.536;2023-03-14T03:34:13;9.60;99.90
52034;DHT22;38045;52.988;6.536;2023-03-14T03:36:39;9.60;99.90
52034;DHT22;38045;52.988;6.536;2023-03-14T03:39:05;9.50;99.90
52034;DHT22;38045;52.988;6.536;2023-03-14T03:41:31;9.50;99.90
52034;DHT22;38045;52.988;6.536;2023-03-14T03:43:57;9.60;99.90
52034;DHT22;38045;52.988;6.536;2023-03-14T03:46:23;9.50;99.90
52034;DHT22;38045;52.988;6.536;2023-03-14T03:48:59;9.50;99.90
52034;DHT22;38045;52.988;6.536;2023-03-14T03:51:25;9.50;99.90
52034;DHT22;38045;52.988;6.536;2023-03-14T03:53:51;9.40;99.90
52034;DHT22;38045;52.988;6.536;2023-03-14T03:56:17;9.40;99.90
52034;DHT22;38045;52.988;6.536;2023-03-14T03:58:43;9.40;99.90
52034;DHT22;38045;52.988;6.536;2023-03-14T04:01:09;9.40;99.90
52034;DHT22;38045;52.988;6.536;2023-03-14T04:03:35;9.30;99.90
52034;DHT22;38045;52.988;6.536;2023-03-14T04:06:07;9.30;99.90
52034;DHT22;38045;52.988;6.536;2023-03-14T04:08:32;9.30;99.90
52034;DHT22;38045;52.988;6.536;2023-03-14T04:10:59;9.30;99.90
52034;DHT22;38045;52.988;6.536;2023-03-14T04:13:25;9.30;99.90
52034;DHT22;38045;52.988;6.536;2023-03-14T04:15:52;9.20;99.90
52034;DHT22;38045;52.988;6.536;2023-03-14T04:18:18;9.20;99.90
52034;DHT22;38045;52.988;6.536;2023-03-14T04:20:44;9.10;99.90
52034;DHT22;38045;52.988;6.536;2023-03-14T04:23:10;9.10;99.90
52034;DHT22;38045;52.988;6.536;2023-03-14T04:25:36;9.10;99.90
52034;DHT22;38045;52.988;6.536;2023-03-14T04:28:02;9.10;99.90
52034;DHT22;38045;52.988;6.536;2023-03-14T04:30:29;9.10;99.90
52034;DHT22;38045;52.988;6.536;2023-03-14T04:32:55;9.10;99.90
52034;DHT22;38045;52.988;6.536;2023-03-14T04:35:20;9.10;99.90
52034;DHT22;38045;52.988;6.536;2023-03-14T04:37:46;9.10;99.90
52034;DHT22;38045;52.988;6.536;2023-03-14T04:40:14;9.10;99.90
52034;DHT22;38045;52.988;6.536;2023-03-14T04:42:40;9.10;99.90
52034;DHT22;38045;52.988;6.536;2023-03-14T04:45:07;9.10;99.90
52034;DHT22;38045;52.988;6.536;2023-03-14T04:47:32;9.10;99.90
52034;DHT22;38045;52.988;6.536;2023-03-14T04:49:58;9.10;99.90
52034;DHT22;38045;52.988;6.536;2023-03-14T04:52:24;8.40;99.90
52034;DHT22;38045;52.988;6.536;2023-03-14T04:54:49;9.10;99.90
52034;DHT22;38045;52.988;6.536;2023-03-14T04:57:15;9.10;99.90
52034;DHT22;38045;52.988;6.536;2023-03-14T04:59:40;9.10;99.90
52034;DHT22;38045;52.988;6.536;2023-03-14T05:02:06;9.10;99.90
52034;DHT22;38045;52.988;6.536;2023-03-14T05:04:32;9.10;99.90
52034;DHT22;38045;52.988;6.536;2023-03-14T05:06:59;9.10;99.90
52034;DHT22;38045;52.988;6.536;2023-03-14T05:09:25;9.10;99.90
52034;DHT22;38045;52.988;6.536;2023-03-14T05:11:51;9.10;99.90
52034;DHT22;38045;52.988;6.536;2023-03-14T05:14:16;9.10;99.90
52034;DHT22;38045;52.988;6.536;2023-03-14T05:16:42;9.10;99.90
52034;DHT22;38045;52.988;6.536;2023-03-14T05:19:07;9.10;99.90
52034;DHT22;38045;52.988;6.536;2023-03-14T05:21:33;9.10;99.90
52034;DHT22;38045;52.988;6.536;2023-03-14T05:23:59;9.00;99.90
52034;DHT22;38045;52.988;6.536;2023-03-14T05:26:24;9.10;99.90
52034;DHT22;38045;52.988;6.536;2023-03-14T05:28:50;9.10;99.90
52034;DHT22;38045;52.988;6.536;2023-03-14T05:31:16;9.10;99.90
52034;DHT22;38045;52.988;6.536;2023-03-14T05:33:41;9.10;99.90
52034;DHT22;38045;52.988;6.536;2023-03-14T05:36:07;9.10;99.90
52034;DHT22;38045;52.988;6.536;2023-03-14T05:38:33;9.10;99.90
52034;DHT22;38045;52.988;6.536;2023-03-14T05:40:58;9.10;99.90
52034;DHT22;38045;52.988;6.536;2023-03-14T05:43:24;9.10;99.90
52034;DHT22;38045;52.988;6.536;2023-03-14T05:45:50;9.00;99.90
52034;DHT22;38045;52.988;6.536;2023-03-14T05:48:15;9.00;99.90
52034;DHT22;38045;52.988;6.536;2023-03-14T05:50:42;8.90;99.90
52034;DHT22;38045;52.988;6.536;2023-03-14T05:53:08;8.90;99.90
52034;DHT22;38045;52.988;6.536;2023-03-14T05:55:33;8.90;99.90
52034;DHT22;38045;52.988;6.536;2023-03-14T05:57:59;8.90;99.90
52034;DHT22;38045;52.988;6.536;2023-03-14T06:00:25;8.90;99.90
52034;DHT22;38045;52.988;6.536;2023-03-14T06:02:50;8.90;99.90
52034;DHT22;38045;52.988;6.536;2023-03-14T06:05:16;8.90;99.90
52034;DHT22;38045;52.988;6.536;2023-03-14T06:07:41;8.90;99.90
52034;DHT22;38045;52.988;6.536;2023-03-14T06:10:07;8.90;99.90
52034;DHT22;38045;52.988;6.536;2023-03-14T06:12:33;8.90;99.90
52034;DHT22;38045;52.988;6.536;2023-03-14T06:14:58;8.90;99.90
52034;DHT22;38045;52.988;6.536;2023-03-14T06:17:24;8.90;99.90
52034;DHT22;38045;52.988;6.536;2023-03-14T06:19:50;8.90;99.90
52034;DHT22;38045;52.988;6.536;2023-03-14T06:22:15;8.90;99.90
52034;DHT22;38045;52.988;6.536;2023-03-14T06:24:41;9.00;99.90
52034;DHT22;38045;52.988;6.536;2023-03-14T06:27:06;9.00;99.90
52034;DHT22;38045;52.988;6.536;2023-03-14T06:29:32;9.00;99.90
52034;DHT22;38045;52.988;6.536;2023-03-14T06:31:58;9.00;99.90
52034;DHT22;38045;52.988;6.536;2023-03-14T06:34:23;9.00;99.90
52034;DHT22;38045;52.988;6.536;2023-03-14T06:36:49;8.90;99.90
52034;DHT22;38045;52.988;6.536;2023-03-14T06:39:14;8.90;99.90
52034;DHT22;38045;52.988;6.536;2023-03-14T06:41:40;8.90;99.90
52034;DHT22;38045;52.988;6.536;2023-03-14T06:44:06;8.90;99.90
52034;DHT22;38045;52.988;6.536;2023-03-14T06:46:31;8.90;99.90
52034;DHT22;38045;52.988;6.536;2023-03-14T06:48:57;8.80;99.90
52034;DHT22;38045;52.988;6.536;2023-03-14T06:51:22;8.90;99.90
52034;DHT22;38045;52.988;6.536;2023-03-14T06:53:48;8.80;99.90
52034;DHT22;38045;52.988;6.536;2023-03-14T06:56:14;8.80;99.90
52034;DHT22;38045;52.988;6.536;2023-03-14T06:58:39;8.90;99.90
52034;DHT22;38045;52.988;6.536;2023-03-14T07:01:05;8.80;99.90
52034;DHT22;38045;52.988;6.536;2023-03-14T07:03:31;8.80;99.90
52034;DHT22;38045;52.988;6.536;2023-03-14T07:05:57;8.60;99.90
52034;DHT22;38045;52.988;6.536;2023-03-14T07:08:23;8.10;99.90
52034;DHT22;38045;52.988;6.536;2023-03-14T07:10:48;7.60;99.90
52034;DHT22;38045;52.988;6.536;2023-03-14T07:13:14;7.30;99.90
52034;DHT22;38045;52.988;6.536;2023-03-14T07:15:39;7.10;99.90
52034;DHT22;38045;52.988;6.536;2023-03-14T07:18:05;6.90;99.90
52034;DHT22;38045;52.988;6.536;2023-03-14T07:20:31;6.70;99.90
52034;DHT22;38045;52.988;6.536;2023-03-14T07:22:57;6.60;99.90
52034;DHT22;38045;52.988;6.536;2023-03-14T07:25:25;6.40;99.90
52034;DHT22;38045;52.988;6.536;2023-03-14T07:27:51;6.20;99.90
52034;DHT22;38045;52.988;6.536;2023-03-14T07:30:16;6.10;99.90
52034;DHT22;38045;52.988;6.536;2023-03-14T07:32:42;5.90;99.90
52034;DHT22;38045;52.988;6.536;2023-03-14T07:35:08;5.70;99.90
52034;DHT22;38045;52.988;6.536;2023-03-14T07:37:34;5.50;99.90
52034;DHT22;38045;52.988;6.536;2023-03-14T07:40:00;5.30;99.90
52034;DHT22;38045;52.988;6.536;2023-03-14T07:42:25;5.20;99.90
52034;DHT22;38045;52.988;6.536;2023-03-14T07:44:51;5.10;99.90
52034;DHT22;38045;52.988;6.536;2023-03-14T07:47:16;5.00;99.90
52034;DHT22;38045;52.988;6.536;2023-03-14T07:49:42;4.90;99.90
52034;DHT22;38045;52.988;6.536;2023-03-14T07:52:07;4.80;99.90
52034;DHT22;38045;52.988;6.536;2023-03-14T07:54:33;4.70;99.90
52034;DHT22;38045;52.988;6.536;2023-03-14T07:56:59;4.70;99.90
52034;DHT22;38045;52.988;6.536;2023-03-14T07:59:26;4.60;99.90
52034;DHT22;38045;52.988;6.536;2023-03-14T08:01:52;4.60;99.90
52034;DHT22;38045;52.988;6.536;2023-03-14T08:04:18;4.60;99.90
52034;DHT22;38045;52.988;6.536;2023-03-14T08:06:43;4.70;99.90
52034;DHT22;38045;52.988;6.536;2023-03-14T08:09:09;4.60;99.90
52034;DHT22;38045;52.988;6.536;2023-03-14T08:11:35;4.60;99.90
52034;DHT22;38045;52.988;6.536;2023-03-14T08:14:00;4.60;99.90
52034;DHT22;38045;52.988;6.536;2023-03-14T08:16:26;4.60;99.90
52034;DHT22;38045;52.988;6.536;2023-03-14T08:18:51;4.80;99.90
52034;DHT22;38045;52.988;6.536;2023-03-14T08:21:17;4.60;99.90
52034;DHT22;38045;52.988;6.536;2023-03-14T08:23:42;4.70;99.90
52034;DHT22;38045;52.988;6.536;2023-03-14T08:26:08;4.70;99.90
52034;DHT22;38045;52.988;6.536;2023-03-14T08:28:34;4.70;99.90
52034;DHT22;38045;52.988;6.536;2023-03-14T08:31:00;4.80;99.90
52034;DHT22;38045;52.988;6.536;2023-03-14T08:33:27;4.80;99.90
52034;DHT22;38045;52.988;6.536;2023-03-14T08:35:55;4.80;99.90
52034;DHT22;38045;52.988;6.536;2023-03-14T08:38:21;4.80;99.90
52034;DHT22;38045;52.988;6.536;2023-03-14T08:40:46;4.90;99.90
52034;DHT22;38045;52.988;6.536;2023-03-14T08:43:12;4.90;99.90
52034;DHT22;38045;52.988;6.536;2023-03-14T08:45:38;4.90;99.90
52034;DHT22;38045;52.988;6.536;2023-03-14T08:48:03;5.00;99.90
52034;DHT22;38045;52.988;6.536;2023-03-14T08:50:29;5.10;99.90
52034;DHT22;38045;52.988;6.536;2023-03-14T08:52:55;5.00;99.90
52034;DHT22;38045;52.988;6.536;2023-03-14T08:55:22;5.10;99.90
52034;DHT22;38045;52.988;6.536;2023-03-14T08:57:48;5.10;99.90
52034;DHT22;38045;52.988;6.536;2023-03-14T09:00:14;5.20;99.90
52034;DHT22;38045;52.988;6.536;2023-03-14T09:02:41;5.20;99.90
52034;DHT22;38045;52.988;6.536;2023-03-14T09:05:07;5.30;99.90
52034;DHT22;38045;52.988;6.536;2023-03-14T09:07:33;5.30;99.90
52034;DHT22;38045;52.988;6.536;2023-03-14T09:09:58;5.40;99.90
52034;DHT22;38045;52.988;6.536;2023-03-14T09:12:24;5.40;99.90
52034;DHT22;38045;52.988;6.536;2023-03-14T09:14:50;5.50;99.90
52034;DHT22;38045;52.988;6.536;2023-03-14T09:17:15;5.50;99.90
52034;DHT22;38045;52.988;6.536;2023-03-14T09:19:41;5.50;99.90
52034;DHT22;38045;52.988;6.536;2023-03-14T09:22:06;5.60;99.90
52034;DHT22;38045;52.988;6.536;2023-03-14T09:24:32;5.70;99.90
52034;DHT22;38045;52.988;6.536;2023-03-14T09:26:58;5.70;99.90
52034;DHT22;38045;52.988;6.536;2023-03-14T09:29:23;5.80;99.90
52034;DHT22;38045;52.988;6.536;2023-03-14T09:31:50;5.80;99.90
52034;DHT22;38045;52.988;6.536;2023-03-14T09:34:15;5.90;99.90
52034;DHT22;38045;52.988;6.536;2023-03-14T09:36:41;5.90;99.90
52034;DHT22;38045;52.988;6.536;2023-03-14T09:39:10;6.00;99.90
52034;DHT22;38045;52.988;6.536;2023-03-14T09:41:39;6.10;99.90
52034;DHT22;38045;52.988;6.536;2023-03-14T09:46:38;6.20;99.90
52034;DHT22;38045;52.988;6.536;2023-03-14T09:49:21;6.10;99.90
52034;DHT22;38045;52.988;6.536;2023-03-14T09:51:51;6.00;99.90
52034;DHT22;38045;52.988;6.536;2023-03-14T09:54:38;6.00;99.90
52034;DHT22;38045;52.988;6.536;2023-03-14T09:57:12;6.00;99.90
52034;DHT22;38045;52.988;6.536;2023-03-14T09:59:39;6.10;99.90
52034;DHT22;38045;52.988;6.536;2023-03-14T10:02:19;6.20;99.90
52034;DHT22;38045;52.988;6.536;2023-03-14T10:04:46;6.20;99.90
52034;DHT22;38045;52.988;6.536;2023-03-14T10:07:18;6.20;99.90
52034;DHT22;38045;52.988;6.536;2023-03-14T10:09:51;6.20;99.90
52034;DHT22;38045;52.988;6.536;2023-03-14T10:12:17;6.20;99.90
52034;DHT22;38045;52.988;6.536;2023-03-14T10:14:49;6.30;99.90
52034;DHT22;38045;52.988;6.536;2023-03-14T10:17:16;6.30;99.90
52034;DHT22;38045;52.988;6.536;2023-03-14T10:19:55;6.30;99.90
52034;DHT22;38045;52.988;6.536;2023-03-14T10:22:24;6.20;99.90
52034;DHT22;38045;52.988;6.536;2023-03-14T10:24:53;6.10;99.90
52034;DHT22;38045;52.988;6.536;2023-03-14T10:27:22;6.10;99.90
52034;DHT22;38045;52.988;6.536;2023-03-14T10:30:07;6.20;99.90
52034;DHT22;38045;52.988;6.536;2023-03-14T10:32:36;6.20;99.90
52034;DHT22;38045;52.988;6.536;2023-03-14T10:37:52;6.10;99.90
52034;DHT22;38045;52.988;6.536;2023-03-14T10:40:23;6.20;99.90
52034;DHT22;38045;52.988;6.536;2023-03-14T10:42:50;6.20;99.90
52034;DHT22;38045;52.988;6.536;2023-03-14T10:50:57;6.60;99.90
52034;DHT22;38045;52.988;6.536;2023-03-14T10:53:24;6.60;99.90
52034;DHT22;38045;52.988;6.536;2023-03-14T10:55:50;6.60;99.90
52034;DHT22;38045;52.988;6.536;2023-03-14T10:58:23;6.60;99.90
52034;DHT22;38045;52.988;6.536;2023-03-14T11:03:48;6.60;99.90
52034;DHT22;38045;52.988;6.536;2023-03-14T11:06:36;6.70;99.90
52034;DHT22;38045;52.988;6.536;2023-03-14T11:21:18;6.40;99.90
52034;DHT22;38045;52.988;6.536;2023-03-14T11:27:03;6.60;99.90
52034;DHT22;38045;52.988;6.536;2023-03-14T11:32:02;6.80;99.90
52034;DHT22;38045;52.988;6.536;2023-03-14T11:34:35;6.90;99.90
52034;DHT22;38045;52.988;6.536;2023-03-14T11:37:07;7.00;99.90
52034;DHT22;38045;52.988;6.536;2023-03-14T11:39:41;7.00;99.90
52034;DHT22;38045;52.988;6.536;2023-03-14T11:42:14;6.90;99.90
52034;DHT22;38045;52.988;6.536;2023-03-14T11:44:40;6.80;99.90
52034;DHT22;38045;52.988;6.536;2023-03-14T11:55:19;7.20;99.90
52034;DHT22;38045;52.988;6.536;2023-03-14T11:57:47;7.20;99.90
52034;DHT22;38045;52.988;6.536;2023-03-14T12:00:16;7.20;99.90
52034;DHT22;38045;52.988;6.536;2023-03-14T12:13:09;7.60;99.90
52034;DHT22;38045;52.988;6.536;2023-03-14T12:15:39;7.90;99.90
52034;DHT22;38045;52.988;6.536;2023-03-14T12:18:31;7.90;99.90
52034;DHT22;38045;52.988;6.536;2023-03-14T12:21:05;8.10;99.90
52034;DHT22;38045;52.988;6.536;2023-03-14T12:23:43;8.10;99.90
52034;DHT22;38045;52.988;6.536;2023-03-14T12:26:20;8.20;99.10
52034;DHT22;38045;52.988;6.536;2023-03-14T12:32:12;8.00;99.90
52034;DHT22;38045;52.988;6.536;2023-03-14T12:34:43;7.60;99.60
52034;DHT22;38045;52.988;6.536;2023-03-14T12:39:47;7.50;99.90
52034;DHT22;38045;52.988;6.536;2023-03-14T12:42:16;7.70;99.70
52034;DHT22;38045;52.988;6.536;2023-03-14T12:44:50;7.60;99.90
52034;DHT22;38045;52.988;6.536;2023-03-14T12:49:49;8.10;99.90
52034;DHT22;38045;52.988;6.536;2023-03-14T12:52:45;8.50;99.90
52034;DHT22;38045;52.988;6.536;2023-03-14T12:55:28;8.90;99.90
52034;DHT22;38045;52.988;6.536;2023-03-14T12:57:59;8.90;99.90
52034;DHT22;38045;52.988;6.536;2023-03-14T13:00:33;8.70;98.40
52034;DHT22;38045;52.988;6.536;2023-03-14T13:03:17;8.40;98.90
52034;DHT22;38045;52.988;6.536;2023-03-14T13:05:58;8.20;95.20
52034;DHT22;38045;52.988;6.536;2023-03-14T13:08:34;8.20;97.10
52034;DHT22;38045;52.988;6.536;2023-03-14T13:11:02;8.00;95.40
52034;DHT22;38045;52.988;6.536;2023-03-14T13:13:34;7.70;96.60
52034;DHT22;38045;52.988;6.536;2023-03-14T13:16:01;7.30;97.40
52034;DHT22;38045;52.988;6.536;2023-03-14T13:18:46;7.30;97.80
52034;DHT22;38045;52.988;6.536;2023-03-14T13:21:16;7.30;95.80
52034;DHT22;38045;52.988;6.536;2023-03-14T13:26:25;7.70;96.60
52034;DHT22;38045;52.988;6.536;2023-03-14T13:28:57;7.80;97.40
52034;DHT22;38045;52.988;6.536;2023-03-14T13:31:24;8.00;98.60
52034;DHT22;38045;52.988;6.536;2023-03-14T13:34:06;8.20;98.40
52034;DHT22;38045;52.988;6.536;2023-03-14T13:36:35;8.30;95.80
52034;DHT22;38045;52.988;6.536;2023-03-14T13:39:01;8.30;95.90
52034;DHT22;38045;52.988;6.536;2023-03-14T13:41:28;8.30;97.40
52034;DHT22;38045;52.988;6.536;2023-03-14T13:44:02;8.30;96.80
52034;DHT22;38045;52.988;6.536;2023-03-14T13:46:29;8.40;96.40
52034;DHT22;38045;52.988;6.536;2023-03-14T13:48:57;8.30;94.10
52034;DHT22;38045;52.988;6.536;2023-03-14T13:51:24;8.40;95.40
52034;DHT22;38045;52.988;6.536;2023-03-14T13:53:54;8.40;95.00
52034;DHT22;38045;52.988;6.536;2023-03-14T13:56:26;8.50;94.20
52034;DHT22;38045;52.988;6.536;2023-03-14T13:58:52;8.50;95.80
52034;DHT22;38045;52.988;6.536;2023-03-14T14:01:33;8.80;95.50
52034;DHT22;38045;52.988;6.536;2023-03-14T14:04:07;8.80;96.20
52034;DHT22;38045;52.988;6.536;2023-03-14T14:06:35;8.70;97.10
52034;DHT22;38045;52.988;6.536;2023-03-14T14:09:12;8.50;94.40
52034;DHT22;38045;52.988;6.536;2023-03-14T14:14:06;8.20;95.40
52034;DHT22;38045;52.988;6.536;2023-03-14T14:16:33;8.00;95.40
52034;DHT22;38045;52.988;6.536;2023-03-14T14:19:00;7.70;94.60
52034;DHT22;38045;52.988;6.536;2023-03-14T14:21:26;7.60;94.80
52034;DHT22;38045;52.988;6.536;2023-03-14T14:23:52;7.50;96.10
52034;DHT22;38045;52.988;6.536;2023-03-14T14:26:18;7.40;96.30
52034;DHT22;38045;52.988;6.536;2023-03-14T14:28:46;7.60;96.00
52034;DHT22;38045;52.988;6.536;2023-03-14T14:33:45;8.20;94.40
52034;DHT22;38045;52.988;6.536;2023-03-14T14:41:26;8.00;95.90
52034;DHT22;38045;52.988;6.536;2023-03-14T14:43:52;7.80;96.50
52034;DHT22;38045;52.988;6.536;2023-03-14T14:46:19;7.60;97.20
52034;DHT22;38045;52.988;6.536;2023-03-14T14:48:45;7.30;97.50
52034;DHT22;38045;52.988;6.536;2023-03-14T14:51:26;7.20;97.50
52034;DHT22;38045;52.988;6.536;2023-03-14T14:54:05;8.10;98.10
52034;DHT22;38045;52.988;6.536;2023-03-14T14:56:35;8.50;97.90
52034;DHT22;38045;52.988;6.536;2023-03-14T14:59:02;8.40;96.60
52034;DHT22;38045;52.988;6.536;2023-03-14T15:01:36;8.20;97.20
52034;DHT22;38045;52.988;6.536;2023-03-14T15:04:04;8.10;97.00
52034;DHT22;38045;52.988;6.536;2023-03-14T15:06:34;8.20;97.70
52034;DHT22;38045;52.988;6.536;2023-03-14T15:09:00;8.20;96.50
52034;DHT22;38045;52.988;6.536;2023-03-14T15:11:26;8.40;96.30
52034;DHT22;38045;52.988;6.536;2023-03-14T15:13:52;8.70;95.70
52034;DHT22;38045;52.988;6.536;2023-03-14T15:16:21;9.00;95.70
52034;DHT22;38045;52.988;6.536;2023-03-14T15:18:54;9.00;95.10
52034;DHT22;38045;52.988;6.536;2023-03-14T15:21:21;9.40;95.10
52034;DHT22;38045;52.988;6.536;2023-03-14T15:23:46;9.10;93.40
52034;DHT22;38045;52.988;6.536;2023-03-14T15:26:18;8.60;95.10
52034;DHT22;38045;52.988;6.536;2023-03-14T15:28:44;8.20;94.80
52034;DHT22;38045;52.988;6.536;2023-03-14T15:31:12;7.90;96.20
52034;DHT22;38045;52.988;6.536;2023-03-14T15:33:38;7.70;97.30
52034;DHT22;38045;52.988;6.536;2023-03-14T15:36:06;7.80;96.10
52034;DHT22;38045;52.988;6.536;2023-03-14T15:38:32;8.00;96.70
52034;DHT22;38045;52.988;6.536;2023-03-14T15:40:57;8.10;96.50
52034;DHT22;38045;52.988;6.536;2023-03-14T15:43:23;8.10;96.30
52034;DHT22;38045;52.988;6.536;2023-03-14T15:45:48;8.40;95.90
52034;DHT22;38045;52.988;6.536;2023-03-14T15:48:18;8.70;94.80
52034;DHT22;38045;52.988;6.536;2023-03-14T15:50:44;8.90;95.70
52034;DHT22;38045;52.988;6.536;2023-03-14T15:53:11;8.90;95.50
52034;DHT22;38045;52.988;6.536;2023-03-14T15:55:37;8.70;94.90
52034;DHT22;38045;52.988;6.536;2023-03-14T15:58:03;8.60;95.30
52034;DHT22;38045;52.988;6.536;2023-03-14T16:00:29;8.20;96.30
52034;DHT22;38045;52.988;6.536;2023-03-14T16:02:55;7.40;98.50
52034;DHT22;38045;52.988;6.536;2023-03-14T16:05:21;6.80;99.90
52034;DHT22;38045;52.988;6.536;2023-03-14T16:07:47;6.40;99.90
52034;DHT22;38045;52.988;6.536;2023-03-14T16:10:14;6.00;99.90
52034;DHT22;38045;52.988;6.536;2023-03-14T16:12:40;5.80;99.90
52034;DHT22;38045;52.988;6.536;2023-03-14T16:15:06;5.70;99.90
52034;DHT22;38045;52.988;6.536;2023-03-14T16:17:33;5.60;99.90
52034;DHT22;38045;52.988;6.536;2023-03-14T16:19:59;5.50;99.90
52034;DHT22;38045;52.988;6.536;2023-03-14T16:22:24;5.50;99.90
52034;DHT22;38045;52.988;6.536;2023-03-14T16:24:50;5.40;99.90
52034;DHT22;38045;52.988;6.536;2023-03-14T16:27:16;5.40;99.90
52034;DHT22;38045;52.988;6.536;2023-03-14T16:29:42;5.30;99.90
52034;DHT22;38045;52.988;6.536;2023-03-14T16:32:08;5.00;99.90
52034;DHT22;38045;52.988;6.536;2023-03-14T16:34:34;4.70;99.90
52034;DHT22;38045;52.988;6.536;2023-03-14T16:37:02;4.50;99.90
52034;DHT22;38045;52.988;6.536;2023-03-14T16:39:28;4.40;99.90
52034;DHT22;38045;52.988;6.536;2023-03-14T16:41:56;4.40;99.90
52034;DHT22;38045;52.988;6.536;2023-03-14T16:44:22;4.40;99.90
52034;DHT22;38045;52.988;6.536;2023-03-14T16:46:48;4.50;99.90
52034;DHT22;38045;52.988;6.536;2023-03-14T16:49:13;4.60;99.90
52034;DHT22;38045;52.988;6.536;2023-03-14T16:51:39;4.70;99.90
52034;DHT22;38045;52.988;6.536;2023-03-14T16:54:05;4.80;99.90
52034;DHT22;38045;52.988;6.536;2023-03-14T16:56:30;5.00;99.90
52034;DHT22;38045;52.988;6.536;2023-03-14T16:58:56;5.00;99.90
52034;DHT22;38045;52.988;6.536;2023-03-14T17:01:22;4.90;99.90
52034;DHT22;38045;52.988;6.536;2023-03-14T17:03:49;4.70;99.90
52034;DHT22;38045;52.988;6.536;2023-03-14T17:06:20;4.60;99.90
52034;DHT22;38045;52.988;6.536;2023-03-14T17:08:48;4.30;99.90
52034;DHT22;38045;52.988;6.536;2023-03-14T17:11:16;4.20;99.90